Pagrindinis puslapis
METAR-TAF:

METAR-TAF

Oro uostai :

McGregor Executive Airport

Waco, Teksasas, Jungtinės Amerikos Valstijos

platuma: 31-29N, ilguma: 097-19W, Aukštis: 180 m

Dabartinis oras

Ataskaita buvo paskelbta 13 minutes, ne 08:56 UTC
Ramus vėjas
Temperatūra 19°C
Drėgmė 94%
Slėgis 1018 hPa
Matomumas: 16.1 km
Giedras dangus

METAR: KPWG 290856Z AUTO 00000KT 10SM CLR 19/18 A3006 RMK AO2 SLP172 T01890183 55002 $

Laikas: 04:09 (09:09 UTC)


TAF: trūkstamas

Orai ataskaitas ir orų prognozės (METAR, TAF).

turimą stotys yra geltonos ir raudonos taškus žemėlapyje.

Perkelti pele per norėdami pamatyti stoties vardą.

Tada spustelėkite, norėdami matyti oro stebėjimo ir prognozės.

Norėdami pakeisti žemėlapį: spustelėkite ant žalios mygtukų su juodo kryžiaus žemyn,; žalią mygtuką su brūkšneliu, jei norite nutolinti; arba žalių rodyklių gretimoms žemėlapius.


METAR-TAF: